LKPR Airport Information

Runway Information
Runway 04 Length 6955 ft width 197 ft
Elevation 1247 ft Threshold 0 ft Heading 37
Runway 22 Length 6955 ft Width 197 ft
Elevation 1174 ft Threshold 0 ft Heading 217
Runway 06 Length 12189 ft width 148 ft
Elevation 1202 ft Threshold 0 ft Heading 65
Runway 24 Length 12189 ft Width 148 ft
Elevation 1158 ft Threshold 0 ft Heading 245
Runway 13 Length 10663 ft width 148 ft
Elevation 1160 ft Threshold 0 ft Heading 127
Runway 31 Length 10663 ft Width 148 ft
Elevation 1232 ft Threshold 0 ft Heading 307
Airport Frequencies
Type APP Name PRAHA APP Frequency 120.525 MHZ
Type ATIS Name ATIS Frequency 122.15 MHZ
Type CLD Name CLNC DEL Frequency 120.05 MHZ
Type GND Name GND Frequency 121.9 MHZ
Type INFO Name INFO Frequency 118.3 MHZ
Type RDR Name RADAR Frequency 119 MHZ
Type TWR Name TWR Frequency 118.1 MHZ
Airport Navaids
Type VOR-DME Name Neratovice Frequency 108600 KHZ
Type VOR-DME Name Praha Frequency 112600 KHZ
Type NDB Name Ruzyne Middle Frequency 307 KHZ
Type NDB Name Ruzyne North Frequency 356 KHZ
Airport Weather Information & NOTAM
ADDS - METARS form results

(2049 UTC 22 February 2018)
 
METAR text: LKPR 222030Z 06009KT CAVOK M04/M10 Q1020 NOSIG
Conditions at: LKPR (PRAGUE/RUZYNE , CZ) observed 2030 UTC 22 February 2018
Temperature: -4.0°C (25°F)
Dewpoint: -10.0°C (14°F) [RH = 63%]
Pressure (altimeter): 30.12 inches Hg (1020.0 mb)
Winds: from the ENE (60 degrees) at 10 MPH (9 knots; 4.7 m/s)
Visibility: 6 or more miles (10+ km)
Ceiling: ceiling and visibility are OK
Clouds: unknown
Weather: no significant weather observed at this time

METAR text: LKPR 222000Z 06007KT CAVOK M04/M10 Q1020 NOSIG
Conditions at: LKPR (PRAGUE/RUZYNE , CZ) observed 2000 UTC 22 February 2018
Temperature: -4.0°C (25°F)
Dewpoint: -10.0°C (14°F) [RH = 63%]
Pressure (altimeter): 30.12 inches Hg (1020.0 mb)
Winds: from the ENE (60 degrees) at 8 MPH (7 knots; 3.6 m/s)
Visibility: 6 or more miles (10+ km)
Ceiling: ceiling and visibility are OK
Clouds: unknown
Weather: no significant weather observed at this time